Yeager Airport
KCRW : now visible

Airfield :











YOU CAN JOIN US ON...

 
LOGIN :

Register | Disclaimer

   EN    FR    IT 

 









Legend :    VFR   Marginal VFR   IFR   Intensive IFR   Very Intensive IFR
Visi :
Ceiling :
>= 8 km
>= 3000ft
5 to 8 km
1000 to 3000 ft
1500m to 5 km
500 to 1000 ft
800 to 1500m
200 to 500 ft
< 800m
< 200 ft
Symbols :   Thunderstorms  Fog  Heavy snow  Heavy precipitations  Wind > 20 kt






- Airport Elevation : 981 ft
- IATA code : CRW


KCRW - Yeager

CURRENT METAR :
  • 100354Z 32007G17KT 5SM -RA BR BKN008 OVC015 12/11 A2988 RMK AO2 SLP113 P0003 T01170111 $

EXPIRED METARs :
  • 100254Z 31009G18KT 5SM -RA BR BKN008 OVC020 14/13 A2987 RMK AO2 RAB06 SLP108 P0001 60001 T01390128 53043 $
  • 100230Z 31014G20KT 10SM -RA FEW012 BKN020 OVC035 16/14 A2985 RMK AO2 RAB06 PRESRR PCPN VRY LGT P0000 T01560139 $
  • 100154Z 24014G23KT 10SM BKN032 OVC055 18/13 A2981 RMK AO2 SLP088 T01780133 $

TAF KCRW
Valid from the 10 at 03:00 until the 11 at 00:00 UTC


100327Z 1003/1024 30010G18KT 5SM -RA BR OVC008
FM100500 30010G17KT P6SM OVC010
FM100700 33007KT P6SM OVC010
FM101600 02004KT P6SM BKN018
FM101900 35005KT P6SM BKN050
KZID FIR / North America



MET'MAP, your aeronautical weather chart ! - Copyright ORBIFLY December 2007 - Disclaimer

ORBIFLY MET'MAP TEAM :

Programming & Development : Alexandra Zaïnal
Concept & original design : Baudouin d'Aumeries
Assistance for programming : Marc-Olivier Méhu
Technical & hardware support : Manuel Goepfert

Contact : metmap@orbifly.com




SOURCES & CREDITS :

   NOAA       Earth
Advisory